sensor_id;sensor_type;location;lat;lon;timestamp;temperature;humidity
41060;DHT22;26811;53.160;8.202;2022-08-21T00:01:50;15.50;99.90
41060;DHT22;26811;53.160;8.202;2022-08-21T00:06:51;15.40;99.90
41060;DHT22;26811;53.160;8.202;2022-08-21T00:11:52;15.40;99.90
41060;DHT22;26811;53.160;8.202;2022-08-21T00:16:52;15.40;99.90
41060;DHT22;26811;53.160;8.202;2022-08-21T00:21:54;15.40;99.90
41060;DHT22;26811;53.160;8.202;2022-08-21T00:26:55;15.40;99.90
41060;DHT22;26811;53.160;8.202;2022-08-21T00:31:55;15.40;99.90
41060;DHT22;26811;53.160;8.202;2022-08-21T00:36:56;15.40;99.90
41060;DHT22;26811;53.160;8.202;2022-08-21T00:41:56;15.40;99.90
41060;DHT22;26811;53.160;8.202;2022-08-21T00:46:57;15.30;99.90
41060;DHT22;26811;53.160;8.202;2022-08-21T00:51:59;15.30;99.90
41060;DHT22;26811;53.160;8.202;2022-08-21T00:57:05;15.20;99.90
41060;DHT22;26811;53.160;8.202;2022-08-21T01:02:08;15.20;99.90
41060;DHT22;26811;53.160;8.202;2022-08-21T01:07:10;15.10;99.90
41060;DHT22;26811;53.160;8.202;2022-08-21T01:12:10;15.10;99.90
41060;DHT22;26811;53.160;8.202;2022-08-21T01:17:13;15.10;99.90
41060;DHT22;26811;53.160;8.202;2022-08-21T01:22:14;15.10;99.90
41060;DHT22;26811;53.160;8.202;2022-08-21T01:27:15;15.00;99.90
41060;DHT22;26811;53.160;8.202;2022-08-21T01:32:18;15.10;99.90
41060;DHT22;26811;53.160;8.202;2022-08-21T01:37:20;15.20;99.90
41060;DHT22;26811;53.160;8.202;2022-08-21T01:42:21;15.30;99.90
41060;DHT22;26811;53.160;8.202;2022-08-21T01:47:23;15.40;99.90
41060;DHT22;26811;53.160;8.202;2022-08-21T01:52:24;15.40;99.90
41060;DHT22;26811;53.160;8.202;2022-08-21T01:57:24;15.40;99.90
41060;DHT22;26811;53.160;8.202;2022-08-21T02:02:25;15.40;99.90
41060;DHT22;26811;53.160;8.202;2022-08-21T02:07:26;15.30;99.90
41060;DHT22;26811;53.160;8.202;2022-08-21T02:12:26;15.20;99.90
41060;DHT22;26811;53.160;8.202;2022-08-21T02:17:27;15.20;99.90
41060;DHT22;26811;53.160;8.202;2022-08-21T02:22:27;15.30;99.90
41060;DHT22;26811;53.160;8.202;2022-08-21T02:27:28;15.40;99.90
41060;DHT22;26811;53.160;8.202;2022-08-21T02:32:28;15.50;99.90
41060;DHT22;26811;53.160;8.202;2022-08-21T02:37:29;15.50;99.90
41060;DHT22;26811;53.160;8.202;2022-08-21T02:42:29;15.50;99.90
41060;DHT22;26811;53.160;8.202;2022-08-21T02:47:30;15.50;99.90
41060;DHT22;26811;53.160;8.202;2022-08-21T02:52:31;15.50;99.90
41060;DHT22;26811;53.160;8.202;2022-08-21T02:57:31;15.50;99.90
41060;DHT22;26811;53.160;8.202;2022-08-21T03:02:32;15.60;99.90
41060;DHT22;26811;53.160;8.202;2022-08-21T03:07:33;15.60;99.90
41060;DHT22;26811;53.160;8.202;2022-08-21T03:12:35;15.60;99.90
41060;DHT22;26811;53.160;8.202;2022-08-21T03:17:35;15.50;99.90
41060;DHT22;26811;53.160;8.202;2022-08-21T03:22:36;15.40;99.90
41060;DHT22;26811;53.160;8.202;2022-08-21T03:27:37;15.40;99.90
41060;DHT22;26811;53.160;8.202;2022-08-21T03:32:38;15.20;99.90
41060;DHT22;26811;53.160;8.202;2022-08-21T03:37:39;15.10;99.90
41060;DHT22;26811;53.160;8.202;2022-08-21T03:42:39;15.00;99.90
41060;DHT22;26811;53.160;8.202;2022-08-21T03:48:08;14.90;99.90
41060;DHT22;26811;53.160;8.202;2022-08-21T03:53:10;14.90;99.90
41060;DHT22;26811;53.160;8.202;2022-08-21T03:58:12;14.80;99.90
41060;DHT22;26811;53.160;8.202;2022-08-21T04:03:12;14.80;99.90
41060;DHT22;26811;53.160;8.202;2022-08-21T04:08:14;14.80;99.90
41060;DHT22;26811;53.160;8.202;2022-08-21T04:13:15;14.70;99.90
41060;DHT22;26811;53.160;8.202;2022-08-21T04:18:16;14.60;99.90
41060;DHT22;26811;53.160;8.202;2022-08-21T04:23:18;14.60;99.90
41060;DHT22;26811;53.160;8.202;2022-08-21T04:28:20;14.50;99.90
41060;DHT22;26811;53.160;8.202;2022-08-21T04:33:21;14.40;99.90
41060;DHT22;26811;53.160;8.202;2022-08-21T04:38:22;14.40;99.90
41060;DHT22;26811;53.160;8.202;2022-08-21T04:43:23;14.40;99.90
41060;DHT22;26811;53.160;8.202;2022-08-21T04:48:24;14.40;99.90
41060;DHT22;26811;53.160;8.202;2022-08-21T04:53:30;14.40;99.90
41060;DHT22;26811;53.160;8.202;2022-08-21T04:58:32;14.50;99.90
41060;DHT22;26811;53.160;8.202;2022-08-21T05:03:34;14.60;99.90
41060;DHT22;26811;53.160;8.202;2022-08-21T05:08:37;14.60;99.90
41060;DHT22;26811;53.160;8.202;2022-08-21T05:13:38;14.70;99.90
41060;DHT22;26811;53.160;8.202;2022-08-21T05:18:41;14.80;99.90
41060;DHT22;26811;53.160;8.202;2022-08-21T05:23:41;14.90;99.90
41060;DHT22;26811;53.160;8.202;2022-08-21T05:28:43;15.00;99.90
41060;DHT22;26811;53.160;8.202;2022-08-21T05:33:43;15.10;99.90
41060;DHT22;26811;53.160;8.202;2022-08-21T05:38:44;15.30;99.90
41060;DHT22;26811;53.160;8.202;2022-08-21T05:43:44;15.40;99.90
41060;DHT22;26811;53.160;8.202;2022-08-21T05:48:45;15.60;99.90
41060;DHT22;26811;53.160;8.202;2022-08-21T05:53:46;15.70;99.90
41060;DHT22;26811;53.160;8.202;2022-08-21T05:58:46;15.90;99.90
41060;DHT22;26811;53.160;8.202;2022-08-21T06:03:47;16.00;99.90
41060;DHT22;26811;53.160;8.202;2022-08-21T06:08:47;16.20;99.90
41060;DHT22;26811;53.160;8.202;2022-08-21T06:13:48;16.40;99.90
41060;DHT22;26811;53.160;8.202;2022-08-21T06:18:49;16.70;99.90
41060;DHT22;26811;53.160;8.202;2022-08-21T06:23:49;17.10;99.90
41060;DHT22;26811;53.160;8.202;2022-08-21T06:28:50;17.50;99.90
41060;DHT22;26811;53.160;8.202;2022-08-21T06:33:51;18.00;99.90
41060;DHT22;26811;53.160;8.202;2022-08-21T06:38:52;19.00;99.90
41060;DHT22;26811;53.160;8.202;2022-08-21T06:43:54;19.60;99.90
41060;DHT22;26811;53.160;8.202;2022-08-21T06:48:55;20.10;99.90
41060;DHT22;26811;53.160;8.202;2022-08-21T06:53:56;21.70;99.90
41060;DHT22;26811;53.160;8.202;2022-08-21T06:58:56;23.00;99.90
41060;DHT22;26811;53.160;8.202;2022-08-21T07:03:57;23.30;99.90
41060;DHT22;26811;53.160;8.202;2022-08-21T07:08:58;24.30;99.90
41060;DHT22;26811;53.160;8.202;2022-08-21T07:13:58;25.20;99.50
41060;DHT22;26811;53.160;8.202;2022-08-21T07:18:59;26.90;96.50
41060;DHT22;26811;53.160;8.202;2022-08-21T07:23:59;27.40;95.00
41060;DHT22;26811;53.160;8.202;2022-08-21T07:29:03;27.10;95.50
41060;DHT22;26811;53.160;8.202;2022-08-21T07:34:04;27.40;95.10
41060;DHT22;26811;53.160;8.202;2022-08-21T07:39:04;26.70;95.30
41060;DHT22;26811;53.160;8.202;2022-08-21T07:44:05;26.30;95.90
41060;DHT22;26811;53.160;8.202;2022-08-21T07:49:06;26.50;96.30
41060;DHT22;26811;53.160;8.202;2022-08-21T07:54:06;26.40;95.70
41060;DHT22;26811;53.160;8.202;2022-08-21T07:59:07;25.60;97.20
41060;DHT22;26811;53.160;8.202;2022-08-21T08:04:07;26.10;96.90
41060;DHT22;26811;53.160;8.202;2022-08-21T08:09:08;26.90;95.80
41060;DHT22;26811;53.160;8.202;2022-08-21T08:14:09;27.30;95.00
41060;DHT22;26811;53.160;8.202;2022-08-21T08:19:09;27.10;96.40
41060;DHT22;26811;53.160;8.202;2022-08-21T08:24:10;27.40;94.90
41060;DHT22;26811;53.160;8.202;2022-08-21T08:29:10;26.70;96.40
41060;DHT22;26811;53.160;8.202;2022-08-21T08:34:11;27.20;95.90
41060;DHT22;26811;53.160;8.202;2022-08-21T08:39:11;27.10;96.80
41060;DHT22;26811;53.160;8.202;2022-08-21T08:44:12;27.10;94.90
41060;DHT22;26811;53.160;8.202;2022-08-21T08:54:33;26.70;95.80
41060;DHT22;26811;53.160;8.202;2022-08-21T08:59:47;26.90;95.40
41060;DHT22;26811;53.160;8.202;2022-08-21T09:04:50;26.00;96.40
41060;DHT22;26811;53.160;8.202;2022-08-21T09:15:06;24.70;97.60
41060;DHT22;26811;53.160;8.202;2022-08-21T09:31:29;24.60;98.00
41060;DHT22;26811;53.160;8.202;2022-08-21T09:36:41;24.30;98.00
41060;DHT22;26811;53.160;8.202;2022-08-21T09:41:42;24.10;96.90
41060;DHT22;26811;53.160;8.202;2022-08-21T09:46:50;24.00;99.90
41060;DHT22;26811;53.160;8.202;2022-08-21T09:51:52;25.00;95.70
41060;DHT22;26811;53.160;8.202;2022-08-21T10:02:34;25.80;95.40
41060;DHT22;26811;53.160;8.202;2022-08-21T10:07:37;26.20;92.70
41060;DHT22;26811;53.160;8.202;2022-08-21T10:28:53;25.00;95.70
41060;DHT22;26811;53.160;8.202;2022-08-21T10:39:33;24.60;97.60
41060;DHT22;26811;53.160;8.202;2022-08-21T10:44:36;24.50;97.20
41060;DHT22;26811;53.160;8.202;2022-08-21T10:54:57;25.70;95.70
41060;DHT22;26811;53.160;8.202;2022-08-21T11:00:06;26.00;94.60
41060;DHT22;26811;53.160;8.202;2022-08-21T11:05:19;25.80;94.00
41060;DHT22;26811;53.160;8.202;2022-08-21T11:10:25;26.10;93.90
41060;DHT22;26811;53.160;8.202;2022-08-21T11:26:38;25.40;94.80
41060;DHT22;26811;53.160;8.202;2022-08-21T11:42:19;25.90;94.50
41060;DHT22;26811;53.160;8.202;2022-08-21T11:47:39;26.00;94.70
41060;DHT22;26811;53.160;8.202;2022-08-21T11:52:55;26.20;93.80
41060;DHT22;26811;53.160;8.202;2022-08-21T11:58:07;26.30;95.20
41060;DHT22;26811;53.160;8.202;2022-08-21T12:03:35;26.30;93.70
41060;DHT22;26811;53.160;8.202;2022-08-21T12:08:44;26.40;94.10
41060;DHT22;26811;53.160;8.202;2022-08-21T12:14:15;26.60;93.30
41060;DHT22;26811;53.160;8.202;2022-08-21T12:29:43;26.30;92.80
41060;DHT22;26811;53.160;8.202;2022-08-21T12:34:52;26.50;92.90
41060;DHT22;26811;53.160;8.202;2022-08-21T12:39:57;26.40;92.10
41060;DHT22;26811;53.160;8.202;2022-08-21T12:45:05;26.10;94.00
41060;DHT22;26811;53.160;8.202;2022-08-21T12:50:21;26.10;92.30
41060;DHT22;26811;53.160;8.202;2022-08-21T12:55:28;26.20;93.10
41060;DHT22;26811;53.160;8.202;2022-08-21T13:00:29;26.30;92.30
41060;DHT22;26811;53.160;8.202;2022-08-21T13:05:34;26.40;91.90
41060;DHT22;26811;53.160;8.202;2022-08-21T13:10:36;26.60;90.80
41060;DHT22;26811;53.160;8.202;2022-08-21T13:15:39;26.60;90.80
41060;DHT22;26811;53.160;8.202;2022-08-21T13:20:43;26.40;91.90
41060;DHT22;26811;53.160;8.202;2022-08-21T13:25:44;26.30;91.50
41060;DHT22;26811;53.160;8.202;2022-08-21T13:30:51;26.20;90.90
41060;DHT22;26811;53.160;8.202;2022-08-21T13:36:09;26.20;91.50
41060;DHT22;26811;53.160;8.202;2022-08-21T13:41:27;26.10;91.40
41060;DHT22;26811;53.160;8.202;2022-08-21T13:46:31;26.10;92.60
41060;DHT22;26811;53.160;8.202;2022-08-21T13:51:33;26.30;92.00
41060;DHT22;26811;53.160;8.202;2022-08-21T13:56:44;26.50;90.30
41060;DHT22;26811;53.160;8.202;2022-08-21T14:02:10;26.80;90.70
41060;DHT22;26811;53.160;8.202;2022-08-21T14:07:19;26.90;90.80
41060;DHT22;26811;53.160;8.202;2022-08-21T14:12:29;26.80;90.30
41060;DHT22;26811;53.160;8.202;2022-08-21T14:17:39;26.60;88.90
41060;DHT22;26811;53.160;8.202;2022-08-21T14:22:46;26.30;89.00
41060;DHT22;26811;53.160;8.202;2022-08-21T14:27:57;26.10;90.40
41060;DHT22;26811;53.160;8.202;2022-08-21T14:32:59;25.80;89.50
41060;DHT22;26811;53.160;8.202;2022-08-21T14:38:00;25.70;90.20
41060;DHT22;26811;53.160;8.202;2022-08-21T14:43:00;26.00;90.10
41060;DHT22;26811;53.160;8.202;2022-08-21T14:48:02;25.90;90.00
41060;DHT22;26811;53.160;8.202;2022-08-21T14:53:03;25.60;90.50
41060;DHT22;26811;53.160;8.202;2022-08-21T14:58:04;25.90;90.00
41060;DHT22;26811;53.160;8.202;2022-08-21T15:03:05;26.30;90.70
41060;DHT22;26811;53.160;8.202;2022-08-21T15:08:05;26.40;90.30
41060;DHT22;26811;53.160;8.202;2022-08-21T15:13:06;26.30;88.30
41060;DHT22;26811;53.160;8.202;2022-08-21T15:18:08;26.00;89.60
41060;DHT22;26811;53.160;8.202;2022-08-21T15:23:08;25.80;89.60
41060;DHT22;26811;53.160;8.202;2022-08-21T15:28:10;25.60;89.70
41060;DHT22;26811;53.160;8.202;2022-08-21T15:33:11;25.40;89.80
41060;DHT22;26811;53.160;8.202;2022-08-21T15:38:12;25.20;90.90
41060;DHT22;26811;53.160;8.202;2022-08-21T15:48:22;24.80;91.20
41060;DHT22;26811;53.160;8.202;2022-08-21T15:53:22;24.50;91.80
41060;DHT22;26811;53.160;8.202;2022-08-21T15:58:23;24.40;92.00
41060;DHT22;26811;53.160;8.202;2022-08-21T16:03:23;24.30;92.50
41060;DHT22;26811;53.160;8.202;2022-08-21T16:08:25;24.10;93.40
41060;DHT22;26811;53.160;8.202;2022-08-21T16:13:28;23.90;96.10
41060;DHT22;26811;53.160;8.202;2022-08-21T16:18:29;23.90;97.30
41060;DHT22;26811;53.160;8.202;2022-08-21T16:23:30;23.80;98.00
41060;DHT22;26811;53.160;8.202;2022-08-21T16:28:31;23.90;98.10
41060;DHT22;26811;53.160;8.202;2022-08-21T16:33:36;23.80;98.20
41060;DHT22;26811;53.160;8.202;2022-08-21T16:38:40;23.60;98.30
41060;DHT22;26811;53.160;8.202;2022-08-21T16:43:43;23.50;99.00
41060;DHT22;26811;53.160;8.202;2022-08-21T16:48:44;23.40;99.10
41060;DHT22;26811;53.160;8.202;2022-08-21T16:53:44;23.40;99.40
41060;DHT22;26811;53.160;8.202;2022-08-21T16:58:48;23.50;99.70
41060;DHT22;26811;53.160;8.202;2022-08-21T17:03:49;23.50;99.90
41060;DHT22;26811;53.160;8.202;2022-08-21T17:08:53;23.50;99.70
41060;DHT22;26811;53.160;8.202;2022-08-21T17:13:55;23.30;99.40
41060;DHT22;26811;53.160;8.202;2022-08-21T17:18:56;23.20;99.70
41060;DHT22;26811;53.160;8.202;2022-08-21T17:23:56;23.00;99.70
41060;DHT22;26811;53.160;8.202;2022-08-21T17:28:57;22.80;99.90
41060;DHT22;26811;53.160;8.202;2022-08-21T17:33:58;22.60;99.90
41060;DHT22;26811;53.160;8.202;2022-08-21T17:38:58;22.40;99.90
41060;DHT22;26811;53.160;8.202;2022-08-21T17:44:03;22.30;99.90
41060;DHT22;26811;53.160;8.202;2022-08-21T17:49:07;22.10;99.90
41060;DHT22;26811;53.160;8.202;2022-08-21T17:54:08;22.00;99.90
41060;DHT22;26811;53.160;8.202;2022-08-21T17:59:09;21.80;99.90
41060;DHT22;26811;53.160;8.202;2022-08-21T18:04:10;21.70;99.90
41060;DHT22;26811;53.160;8.202;2022-08-21T18:09:12;21.70;99.90
41060;DHT22;26811;53.160;8.202;2022-08-21T18:14:14;21.60;99.90
41060;DHT22;26811;53.160;8.202;2022-08-21T18:19:15;21.60;99.90
41060;DHT22;26811;53.160;8.202;2022-08-21T18:24:21;21.60;99.90
41060;DHT22;26811;53.160;8.202;2022-08-21T18:29:22;21.50;99.90
41060;DHT22;26811;53.160;8.202;2022-08-21T18:34:32;21.40;99.90
41060;DHT22;26811;53.160;8.202;2022-08-21T18:39:34;21.20;99.90
41060;DHT22;26811;53.160;8.202;2022-08-21T18:44:35;21.00;99.90
41060;DHT22;26811;53.160;8.202;2022-08-21T18:49:36;20.80;99.90
41060;DHT22;26811;53.160;8.202;2022-08-21T18:54:37;20.80;99.90
41060;DHT22;26811;53.160;8.202;2022-08-21T18:59:37;20.90;99.90
41060;DHT22;26811;53.160;8.202;2022-08-21T19:04:38;20.90;99.90
41060;DHT22;26811;53.160;8.202;2022-08-21T19:09:41;20.90;99.90
41060;DHT22;26811;53.160;8.202;2022-08-21T19:14:42;20.80;99.90
41060;DHT22;26811;53.160;8.202;2022-08-21T19:19:43;20.80;99.90
41060;DHT22;26811;53.160;8.202;2022-08-21T19:24:43;20.70;99.90
41060;DHT22;26811;53.160;8.202;2022-08-21T19:29:44;20.60;99.90
41060;DHT22;26811;53.160;8.202;2022-08-21T19:34:45;20.50;99.90
41060;DHT22;26811;53.160;8.202;2022-08-21T19:39:46;20.40;99.90
41060;DHT22;26811;53.160;8.202;2022-08-21T19:44:47;20.30;99.90
41060;DHT22;26811;53.160;8.202;2022-08-21T19:49:51;20.30;99.90
41060;DHT22;26811;53.160;8.202;2022-08-21T19:54:53;20.30;99.90
41060;DHT22;26811;53.160;8.202;2022-08-21T19:59:54;20.20;99.90
41060;DHT22;26811;53.160;8.202;2022-08-21T20:04:54;20.20;99.90
41060;DHT22;26811;53.160;8.202;2022-08-21T20:09:55;20.10;99.90
41060;DHT22;26811;53.160;8.202;2022-08-21T20:14:57;20.10;99.90
41060;DHT22;26811;53.160;8.202;2022-08-21T20:19:58;19.90;99.90
41060;DHT22;26811;53.160;8.202;2022-08-21T20:24:58;19.80;99.90
41060;DHT22;26811;53.160;8.202;2022-08-21T20:29:59;19.70;99.90
41060;DHT22;26811;53.160;8.202;2022-08-21T20:35:00;19.70;99.90
41060;DHT22;26811;53.160;8.202;2022-08-21T20:40:01;19.80;99.90
41060;DHT22;26811;53.160;8.202;2022-08-21T20:45:06;19.90;99.90
41060;DHT22;26811;53.160;8.202;2022-08-21T20:50:10;19.90;99.90
41060;DHT22;26811;53.160;8.202;2022-08-21T20:55:14;19.90;99.90
41060;DHT22;26811;53.160;8.202;2022-08-21T21:00:18;19.90;99.90
41060;DHT22;26811;53.160;8.202;2022-08-21T21:05:39;19.90;99.90
41060;DHT22;26811;53.160;8.202;2022-08-21T21:10:48;19.90;99.90
41060;DHT22;26811;53.160;8.202;2022-08-21T21:15:53;19.90;99.90
41060;DHT22;26811;53.160;8.202;2022-08-21T21:21:21;19.90;99.90
41060;DHT22;26811;53.160;8.202;2022-08-21T21:26:37;19.80;99.90
41060;DHT22;26811;53.160;8.202;2022-08-21T21:31:39;19.80;99.90
41060;DHT22;26811;53.160;8.202;2022-08-21T21:36:53;19.70;99.90
41060;DHT22;26811;53.160;8.202;2022-08-21T21:42:14;19.70;99.90
41060;DHT22;26811;53.160;8.202;2022-08-21T21:47:52;19.60;99.90
41060;DHT22;26811;53.160;8.202;2022-08-21T21:59:02;19.50;99.90
41060;DHT22;26811;53.160;8.202;2022-08-21T22:04:32;19.40;99.90
41060;DHT22;26811;53.160;8.202;2022-08-21T22:09:47;19.40;99.90
41060;DHT22;26811;53.160;8.202;2022-08-21T22:14:49;19.40;99.90
41060;DHT22;26811;53.160;8.202;2022-08-21T22:19:51;19.40;99.90
41060;DHT22;26811;53.160;8.202;2022-08-21T22:25:03;19.40;99.90
41060;DHT22;26811;53.160;8.202;2022-08-21T22:30:10;19.40;99.90
41060;DHT22;26811;53.160;8.202;2022-08-21T22:35:25;19.30;99.90
41060;DHT22;26811;53.160;8.202;2022-08-21T22:40:35;19.30;99.90
41060;DHT22;26811;53.160;8.202;2022-08-21T22:46:00;19.30;99.90
41060;DHT22;26811;53.160;8.202;2022-08-21T22:51:12;19.30;99.90
41060;DHT22;26811;53.160;8.202;2022-08-21T22:56:27;19.30;99.90
41060;DHT22;26811;53.160;8.202;2022-08-21T23:01:34;19.20;99.90
41060;DHT22;26811;53.160;8.202;2022-08-21T23:06:56;19.10;99.90
41060;DHT22;26811;53.160;8.202;2022-08-21T23:12:01;19.00;99.90
41060;DHT22;26811;53.160;8.202;2022-08-21T23:17:17;18.80;99.90
41060;DHT22;26811;53.160;8.202;2022-08-21T23:27:59;18.70;99.90
41060;DHT22;26811;53.160;8.202;2022-08-21T23:33:28;18.50;99.90
41060;DHT22;26811;53.160;8.202;2022-08-21T23:38:43;18.40;99.90
41060;DHT22;26811;53.160;8.202;2022-08-21T23:43:55;18.30;99.90
41060;DHT22;26811;53.160;8.202;2022-08-21T23:49:11;18.30;99.90
41060;DHT22;26811;53.160;8.202;2022-08-21T23:54:43;18.30;99.90
41060;DHT22;26811;53.160;8.202;2022-08-21T23:59:56;18.30;99.90
